sensor_id;sensor_type;location;lat;lon;timestamp;pressure;altitude;pressure_sealevel;temperature;humidity
60817;BME280;51921;51.518;-3.188;2023-05-18T00:02:20;102464.90;;;15.38;62.58
60817;BME280;51921;51.518;-3.188;2023-05-18T00:04:45;102461.94;;;15.60;63.12
60817;BME280;51921;51.518;-3.188;2023-05-18T00:07:11;102459.73;;;15.13;64.35
60817;BME280;51921;51.518;-3.188;2023-05-18T00:09:36;102459.00;;;14.80;64.81
60817;BME280;51921;51.518;-3.188;2023-05-18T00:12:03;102456.55;;;15.40;63.59
60817;BME280;51921;51.518;-3.188;2023-05-18T00:14:27;102454.48;;;15.10;63.76
60817;BME280;51921;51.518;-3.188;2023-05-18T00:16:52;102457.12;;;15.69;61.94
60817;BME280;51921;51.518;-3.188;2023-05-18T00:19:18;102456.44;;;15.19;63.35
60817;BME280;51921;51.518;-3.188;2023-05-18T00:21:44;102455.07;;;15.29;63.30
60817;BME280;51921;51.518;-3.188;2023-05-18T00:24:09;102457.36;;;16.02;60.26
60817;BME280;51921;51.518;-3.188;2023-05-18T00:26:34;102456.25;;;15.60;61.22
60817;BME280;51921;51.518;-3.188;2023-05-18T00:28:59;102454.61;;;16.08;60.29
60817;BME280;51921;51.518;-3.188;2023-05-18T00:31:25;102452.97;;;14.62;63.69
60817;BME280;51921;51.518;-3.188;2023-05-18T00:33:50;102451.47;;;15.41;61.26
60817;BME280;51921;51.518;-3.188;2023-05-18T00:36:15;102452.10;;;14.55;64.52
60817;BME280;51921;51.518;-3.188;2023-05-18T00:38:41;102452.16;;;14.79;64.36
60817;BME280;51921;51.518;-3.188;2023-05-18T00:41:06;102455.39;;;15.55;63.13
60817;BME280;51921;51.518;-3.188;2023-05-18T00:43:31;102451.76;;;14.72;65.24
60817;BME280;51921;51.518;-3.188;2023-05-18T00:45:57;102453.52;;;15.64;62.63
60817;BME280;51921;51.518;-3.188;2023-05-18T00:48:22;102453.72;;;14.30;65.29
60817;BME280;51921;51.518;-3.188;2023-05-18T00:50:47;102454.03;;;14.79;66.72
60817;BME280;51921;51.518;-3.188;2023-05-18T00:53:13;102455.55;;;14.17;65.78
60817;BME280;51921;51.518;-3.188;2023-05-18T00:55:38;102459.19;;;15.67;62.16
60817;BME280;51921;51.518;-3.188;2023-05-18T00:58:04;102460.02;;;14.78;63.51
60817;BME280;51921;51.518;-3.188;2023-05-18T01:00:29;102461.46;;;15.73;61.98
60817;BME280;51921;51.518;-3.188;2023-05-18T01:02:54;102466.55;;;15.69;62.01
60817;BME280;51921;51.518;-3.188;2023-05-18T01:05:20;102462.90;;;15.38;60.40
60817;BME280;51921;51.518;-3.188;2023-05-18T01:07:45;102463.33;;;14.84;61.91
60817;BME280;51921;51.518;-3.188;2023-05-18T01:10:12;102461.36;;;15.28;62.33
60817;BME280;51921;51.518;-3.188;2023-05-18T01:12:40;102460.00;;;15.20;62.22
60817;BME280;51921;51.518;-3.188;2023-05-18T01:15:07;102457.78;;;15.35;61.70
60817;BME280;51921;51.518;-3.188;2023-05-18T01:17:34;102459.12;;;14.53;62.85
60817;BME280;51921;51.518;-3.188;2023-05-18T01:20:06;102456.55;;;15.40;60.76
60817;BME280;51921;51.518;-3.188;2023-05-18T01:22:30;102456.34;;;15.11;61.44
60817;BME280;51921;51.518;-3.188;2023-05-18T01:24:47;102456.22;;;14.92;62.45
60817;BME280;51921;51.518;-3.188;2023-05-18T01:27:08;102456.87;;;15.20;60.77
60817;BME280;51921;51.518;-3.188;2023-05-18T01:29:34;102457.43;;;14.61;61.94
60817;BME280;51921;51.518;-3.188;2023-05-18T01:31:59;102458.03;;;14.85;61.08
60817;BME280;51921;51.518;-3.188;2023-05-18T01:34:24;102457.24;;;13.92;63.68
60817;BME280;51921;51.518;-3.188;2023-05-18T01:36:50;102456.51;;;15.04;58.79
60817;BME280;51921;51.518;-3.188;2023-05-18T01:39:16;102456.97;;;14.99;58.78
60817;BME280;51921;51.518;-3.188;2023-05-18T01:41:46;102455.08;;;15.28;57.60
60817;BME280;51921;51.518;-3.188;2023-05-18T01:44:10;102455.86;;;15.01;58.02
60817;BME280;51921;51.518;-3.188;2023-05-18T01:46:35;102457.69;;;15.30;56.73
60817;BME280;51921;51.518;-3.188;2023-05-18T01:48:59;102458.55;;;14.77;57.76
60817;BME280;51921;51.518;-3.188;2023-05-18T01:51:25;102457.57;;;14.39;58.78
60817;BME280;51921;51.518;-3.188;2023-05-18T01:53:54;102457.01;;;15.16;58.09
60817;BME280;51921;51.518;-3.188;2023-05-18T01:56:13;102452.90;;;14.93;57.30
60817;BME280;51921;51.518;-3.188;2023-05-18T01:58:39;102453.97;;;14.68;58.52
60817;BME280;51921;51.518;-3.188;2023-05-18T02:01:04;102453.26;;;14.10;60.15
60817;BME280;51921;51.518;-3.188;2023-05-18T02:03:30;102453.54;;;14.03;60.31
60817;BME280;51921;51.518;-3.188;2023-05-18T02:05:55;102455.49;;;14.31;59.84
60817;BME280;51921;51.518;-3.188;2023-05-18T02:08:20;102453.29;;;14.51;58.44
60817;BME280;51921;51.518;-3.188;2023-05-18T02:10:45;102452.24;;;15.02;57.42
60817;BME280;51921;51.518;-3.188;2023-05-18T02:13:11;102451.88;;;14.78;57.08
60817;BME280;51921;51.518;-3.188;2023-05-18T02:15:36;102454.35;;;15.52;56.05
60817;BME280;51921;51.518;-3.188;2023-05-18T02:18:02;102451.77;;;15.13;56.59
60817;BME280;51921;51.518;-3.188;2023-05-18T02:20:27;102451.80;;;15.26;55.18
60817;BME280;51921;51.518;-3.188;2023-05-18T02:22:52;102452.51;;;14.22;58.61
60817;BME280;51921;51.518;-3.188;2023-05-18T02:25:18;102451.40;;;14.54;57.64
60817;BME280;51921;51.518;-3.188;2023-05-18T02:27:43;102450.20;;;14.21;57.97
60817;BME280;51921;51.518;-3.188;2023-05-18T02:30:10;102448.84;;;14.81;57.65
60817;BME280;51921;51.518;-3.188;2023-05-18T02:32:35;102448.79;;;14.22;58.31
60817;BME280;51921;51.518;-3.188;2023-05-18T02:35:00;102449.96;;;14.61;58.35
60817;BME280;51921;51.518;-3.188;2023-05-18T02:37:25;102450.48;;;14.88;56.25
60817;BME280;51921;51.518;-3.188;2023-05-18T02:39:51;102449.51;;;15.54;53.76
60817;BME280;51921;51.518;-3.188;2023-05-18T02:42:16;102444.37;;;15.42;54.28
60817;BME280;51921;51.518;-3.188;2023-05-18T02:44:41;102440.54;;;14.39;58.05
60817;BME280;51921;51.518;-3.188;2023-05-18T02:47:07;102440.84;;;14.79;57.17
60817;BME280;51921;51.518;-3.188;2023-05-18T02:49:32;102444.82;;;12.02;66.66
60817;BME280;51921;51.518;-3.188;2023-05-18T02:51:57;102446.83;;;10.52;74.85
60817;BME280;51921;51.518;-3.188;2023-05-18T02:54:23;102445.79;;;11.01;74.49
60817;BME280;51921;51.518;-3.188;2023-05-18T02:56:48;102440.15;;;11.88;72.25
60817;BME280;51921;51.518;-3.188;2023-05-18T02:59:13;102438.77;;;12.28;70.15
60817;BME280;51921;51.518;-3.188;2023-05-18T03:01:39;102436.82;;;13.83;65.45
60817;BME280;51921;51.518;-3.188;2023-05-18T03:04:04;102437.03;;;14.00;64.96
60817;BME280;51921;51.518;-3.188;2023-05-18T03:06:30;102439.97;;;12.92;67.17
60817;BME280;51921;51.518;-3.188;2023-05-18T03:08:56;102439.86;;;13.74;65.12
60817;BME280;51921;51.518;-3.188;2023-05-18T03:11:21;102438.98;;;14.57;62.18
60817;BME280;51921;51.518;-3.188;2023-05-18T03:13:46;102441.65;;;13.57;63.92
60817;BME280;51921;51.518;-3.188;2023-05-18T03:16:11;102436.36;;;14.32;61.53
60817;BME280;51921;51.518;-3.188;2023-05-18T03:18:37;102437.33;;;14.33;60.38
60817;BME280;51921;51.518;-3.188;2023-05-18T03:21:03;102436.99;;;13.93;61.26
60817;BME280;51921;51.518;-3.188;2023-05-18T03:23:28;102437.92;;;13.62;61.30
60817;BME280;51921;51.518;-3.188;2023-05-18T03:25:53;102437.99;;;14.73;59.03
60817;BME280;51921;51.518;-3.188;2023-05-18T03:28:19;102438.02;;;14.07;60.02
60817;BME280;51921;51.518;-3.188;2023-05-18T03:30:44;102439.53;;;14.33;59.29
60817;BME280;51921;51.518;-3.188;2023-05-18T03:33:10;102437.09;;;14.27;58.87
60817;BME280;51921;51.518;-3.188;2023-05-18T03:35:35;102435.41;;;13.96;59.78
60817;BME280;51921;51.518;-3.188;2023-05-18T03:38:01;102437.67;;;14.48;58.52
60817;BME280;51921;51.518;-3.188;2023-05-18T03:40:26;102440.76;;;14.58;57.95
60817;BME280;51921;51.518;-3.188;2023-05-18T03:42:51;102438.79;;;15.06;56.93
60817;BME280;51921;51.518;-3.188;2023-05-18T03:45:17;102442.42;;;15.33;55.92
60817;BME280;51921;51.518;-3.188;2023-05-18T03:47:42;102443.17;;;15.21;55.26
60817;BME280;51921;51.518;-3.188;2023-05-18T03:50:09;102441.45;;;12.11;61.54
60817;BME280;51921;51.518;-3.188;2023-05-18T03:52:34;102448.27;;;10.38;74.00
60817;BME280;51921;51.518;-3.188;2023-05-18T03:54:59;102449.98;;;12.14;71.61
60817;BME280;51921;51.518;-3.188;2023-05-18T03:57:24;102449.12;;;13.98;63.69
60817;BME280;51921;51.518;-3.188;2023-05-18T03:59:49;102445.70;;;13.80;63.01
60817;BME280;51921;51.518;-3.188;2023-05-18T04:02:15;102445.21;;;12.73;65.23
60817;BME280;51921;51.518;-3.188;2023-05-18T04:04:40;102443.92;;;14.11;62.34
60817;BME280;51921;51.518;-3.188;2023-05-18T04:07:06;102447.80;;;13.91;63.56
60817;BME280;51921;51.518;-3.188;2023-05-18T04:09:32;102446.92;;;14.27;62.39
60817;BME280;51921;51.518;-3.188;2023-05-18T04:11:57;102452.37;;;13.50;62.65
60817;BME280;51921;51.518;-3.188;2023-05-18T04:14:22;102452.37;;;13.12;62.52
60817;BME280;51921;51.518;-3.188;2023-05-18T04:16:48;102450.71;;;13.40;61.77
60817;BME280;51921;51.518;-3.188;2023-05-18T04:19:13;102447.60;;;13.58;61.91
60817;BME280;51921;51.518;-3.188;2023-05-18T04:21:39;102443.60;;;13.50;61.83
60817;BME280;51921;51.518;-3.188;2023-05-18T04:24:05;102442.36;;;13.57;60.95
60817;BME280;51921;51.518;-3.188;2023-05-18T04:26:29;102440.43;;;13.18;60.68
60817;BME280;51921;51.518;-3.188;2023-05-18T04:28:55;102438.93;;;10.98;71.35
60817;BME280;51921;51.518;-3.188;2023-05-18T04:31:20;102432.38;;;12.55;68.00
60817;BME280;51921;51.518;-3.188;2023-05-18T04:33:45;102435.80;;;13.16;65.36
60817;BME280;51921;51.518;-3.188;2023-05-18T04:36:11;102435.97;;;12.65;66.13
60817;BME280;51921;51.518;-3.188;2023-05-18T04:38:36;102431.02;;;13.35;65.14
60817;BME280;51921;51.518;-3.188;2023-05-18T04:41:02;102427.81;;;13.64;63.39
60817;BME280;51921;51.518;-3.188;2023-05-18T04:43:27;102433.98;;;15.06;59.61
60817;BME280;51921;51.518;-3.188;2023-05-18T04:45:53;102439.89;;;14.41;61.03
60817;BME280;51921;51.518;-3.188;2023-05-18T04:48:18;102451.34;;;13.06;61.61
60817;BME280;51921;51.518;-3.188;2023-05-18T04:50:44;102442.20;;;13.36;61.06
60817;BME280;51921;51.518;-3.188;2023-05-18T04:53:09;102440.06;;;12.99;60.75
60817;BME280;51921;51.518;-3.188;2023-05-18T04:55:35;102440.34;;;13.22;61.43
60817;BME280;51921;51.518;-3.188;2023-05-18T04:58:00;102437.74;;;14.07;58.69
60817;BME280;51921;51.518;-3.188;2023-05-18T05:00:27;102437.85;;;13.73;57.98
60817;BME280;51921;51.518;-3.188;2023-05-18T05:02:51;102439.17;;;14.05;56.82
60817;BME280;51921;51.518;-3.188;2023-05-18T05:05:16;102440.68;;;14.77;55.50
60817;BME280;51921;51.518;-3.188;2023-05-18T05:07:41;102445.52;;;13.67;58.53
60817;BME280;51921;51.518;-3.188;2023-05-18T05:10:07;102454.38;;;14.72;56.82
60817;BME280;51921;51.518;-3.188;2023-05-18T05:12:32;102472.40;;;12.54;59.37
60817;BME280;51921;51.518;-3.188;2023-05-18T05:14:57;102471.53;;;12.03;61.71
60817;BME280;51921;51.518;-3.188;2023-05-18T05:17:23;102462.83;;;13.14;59.25
60817;BME280;51921;51.518;-3.188;2023-05-18T05:19:48;102462.06;;;14.05;54.31
60817;BME280;51921;51.518;-3.188;2023-05-18T05:22:14;102464.04;;;13.15;57.02
60817;BME280;51921;51.518;-3.188;2023-05-18T05:24:39;102466.91;;;14.19;56.18
60817;BME280;51921;51.518;-3.188;2023-05-18T05:27:04;102469.68;;;13.15;57.74
60817;BME280;51921;51.518;-3.188;2023-05-18T05:29:30;102466.33;;;13.73;55.79
60817;BME280;51921;51.518;-3.188;2023-05-18T05:31:55;102461.84;;;13.72;55.34
60817;BME280;51921;51.518;-3.188;2023-05-18T05:34:21;102457.17;;;13.58;54.77
60817;BME280;51921;51.518;-3.188;2023-05-18T05:36:46;102457.80;;;15.00;51.85
60817;BME280;51921;51.518;-3.188;2023-05-18T05:39:11;102452.14;;;13.00;54.19
60817;BME280;51921;51.518;-3.188;2023-05-18T05:41:37;102455.63;;;10.46;64.03
60817;BME280;51921;51.518;-3.188;2023-05-18T05:44:03;102455.21;;;9.95;71.67
60817;BME280;51921;51.518;-3.188;2023-05-18T05:46:28;102454.47;;;12.84;62.99
60817;BME280;51921;51.518;-3.188;2023-05-18T05:48:53;102456.51;;;13.99;58.03
60817;BME280;51921;51.518;-3.188;2023-05-18T05:51:20;102459.17;;;14.18;56.74
60817;BME280;51921;51.518;-3.188;2023-05-18T05:53:44;102460.17;;;14.20;55.14
60817;BME280;51921;51.518;-3.188;2023-05-18T05:56:10;102467.90;;;14.89;54.75
60817;BME280;51921;51.518;-3.188;2023-05-18T05:58:35;102468.27;;;14.56;54.74
60817;BME280;51921;51.518;-3.188;2023-05-18T06:01:01;102467.31;;;14.36;53.67
60817;BME280;51921;51.518;-3.188;2023-05-18T06:03:26;102469.88;;;12.87;57.89
60817;BME280;51921;51.518;-3.188;2023-05-18T06:05:51;102472.58;;;12.51;58.05
60817;BME280;51921;51.518;-3.188;2023-05-18T06:08:17;102472.10;;;13.61;56.59
60817;BME280;51921;51.518;-3.188;2023-05-18T06:10:42;102473.74;;;15.32;53.97
60817;BME280;51921;51.518;-3.188;2023-05-18T06:13:08;102474.30;;;15.10;54.91
60817;BME280;51921;51.518;-3.188;2023-05-18T06:15:33;102473.53;;;14.95;52.88
60817;BME280;51921;51.518;-3.188;2023-05-18T06:17:59;102474.88;;;15.19;53.36
60817;BME280;51921;51.518;-3.188;2023-05-18T06:20:24;102479.16;;;15.78;51.21
60817;BME280;51921;51.518;-3.188;2023-05-18T06:22:49;102480.76;;;15.19;50.98
60817;BME280;51921;51.518;-3.188;2023-05-18T06:25:15;102478.44;;;11.97;60.79
60817;BME280;51921;51.518;-3.188;2023-05-18T06:27:40;102480.82;;;10.60;69.56
60817;BME280;51921;51.518;-3.188;2023-05-18T06:30:07;102485.39;;;9.67;74.43
60817;BME280;51921;51.518;-3.188;2023-05-18T06:32:31;102486.53;;;10.56;73.33
60817;BME280;51921;51.518;-3.188;2023-05-18T06:34:56;102483.86;;;12.74;65.89
60817;BME280;51921;51.518;-3.188;2023-05-18T06:37:22;102481.61;;;14.21;58.26
60817;BME280;51921;51.518;-3.188;2023-05-18T06:39:48;102477.71;;;15.24;54.83
60817;BME280;51921;51.518;-3.188;2023-05-18T06:42:13;102476.26;;;15.86;52.85
60817;BME280;51921;51.518;-3.188;2023-05-18T06:44:39;102470.20;;;17.18;46.76
60817;BME280;51921;51.518;-3.188;2023-05-18T06:47:05;102472.64;;;16.95;47.00
60817;BME280;51921;51.518;-3.188;2023-05-18T06:49:30;102477.37;;;17.16;46.98
60817;BME280;51921;51.518;-3.188;2023-05-18T06:51:55;102482.27;;;17.01;45.74
60817;BME280;51921;51.518;-3.188;2023-05-18T06:54:20;102483.81;;;15.85;48.66
60817;BME280;51921;51.518;-3.188;2023-05-18T06:56:46;102483.60;;;12.94;55.73
60817;BME280;51921;51.518;-3.188;2023-05-18T06:59:11;102482.67;;;16.00;50.02
60817;BME280;51921;51.518;-3.188;2023-05-18T07:01:37;102482.93;;;15.48;51.27
60817;BME280;51921;51.518;-3.188;2023-05-18T07:04:03;102481.98;;;16.18;49.33
60817;BME280;51921;51.518;-3.188;2023-05-18T07:06:28;102477.90;;;16.53;47.65
60817;BME280;51921;51.518;-3.188;2023-05-18T07:08:53;102483.36;;;17.81;45.75
60817;BME280;51921;51.518;-3.188;2023-05-18T07:11:18;102486.14;;;15.67;46.85
60817;BME280;51921;51.518;-3.188;2023-05-18T07:13:43;102484.95;;;16.40;47.57
60817;BME280;51921;51.518;-3.188;2023-05-18T07:16:09;102486.77;;;17.32;45.21
60817;BME280;51921;51.518;-3.188;2023-05-18T07:18:34;102490.84;;;18.17;44.82
60817;BME280;51921;51.518;-3.188;2023-05-18T07:21:00;102492.04;;;19.12;42.05
60817;BME280;51921;51.518;-3.188;2023-05-18T07:23:25;102494.29;;;19.50;41.18
60817;BME280;51921;51.518;-3.188;2023-05-18T07:25:51;102494.51;;;18.77;40.10
60817;BME280;51921;51.518;-3.188;2023-05-18T07:28:16;102497.44;;;19.61;39.09
60817;BME280;51921;51.518;-3.188;2023-05-18T07:30:42;102495.70;;;19.89;38.13
60817;BME280;51921;51.518;-3.188;2023-05-18T07:33:07;102500.12;;;20.83;37.53
60817;BME280;51921;51.518;-3.188;2023-05-18T07:35:32;102499.11;;;21.38;35.27
60817;BME280;51921;51.518;-3.188;2023-05-18T07:37:58;102504.25;;;19.91;37.09
60817;BME280;51921;51.518;-3.188;2023-05-18T07:40:23;102503.62;;;18.47;38.38
60817;BME280;51921;51.518;-3.188;2023-05-18T07:42:48;102502.93;;;20.23;36.54
60817;BME280;51921;51.518;-3.188;2023-05-18T07:45:14;102501.20;;;21.09;35.10
60817;BME280;51921;51.518;-3.188;2023-05-18T07:47:40;102501.81;;;19.67;36.59
60817;BME280;51921;51.518;-3.188;2023-05-18T07:50:06;102501.05;;;20.45;36.13
60817;BME280;51921;51.518;-3.188;2023-05-18T07:52:30;102502.43;;;20.26;35.40
60817;BME280;51921;51.518;-3.188;2023-05-18T07:54:56;102502.78;;;16.01;40.25
60817;BME280;51921;51.518;-3.188;2023-05-18T07:57:21;102502.31;;;13.72;47.92
60817;BME280;51921;51.518;-3.188;2023-05-18T07:59:46;102506.92;;;16.49;43.72
60817;BME280;51921;51.518;-3.188;2023-05-18T08:02:11;102507.21;;;17.94;42.54
60817;BME280;51921;51.518;-3.188;2023-05-18T08:04:37;102506.90;;;18.26;40.78
60817;BME280;51921;51.518;-3.188;2023-05-18T08:07:02;102506.41;;;18.35;39.86
60817;BME280;51921;51.518;-3.188;2023-05-18T08:09:27;102505.81;;;18.68;38.94
60817;BME280;51921;51.518;-3.188;2023-05-18T08:11:52;102503.16;;;19.21;38.36
60817;BME280;51921;51.518;-3.188;2023-05-18T08:14:18;102503.91;;;19.17;37.99
60817;BME280;51921;51.518;-3.188;2023-05-18T08:16:43;102506.32;;;13.09;49.50
60817;BME280;51921;51.518;-3.188;2023-05-18T08:19:08;102510.57;;;10.94;58.39
60817;BME280;51921;51.518;-3.188;2023-05-18T08:21:34;102508.20;;;16.60;48.22
60817;BME280;51921;51.518;-3.188;2023-05-18T08:23:59;102511.53;;;15.80;46.25
60817;BME280;51921;51.518;-3.188;2023-05-18T08:26:25;102507.28;;;17.72;41.98
60817;BME280;51921;51.518;-3.188;2023-05-18T08:28:50;102508.52;;;18.49;41.21
60817;BME280;51921;51.518;-3.188;2023-05-18T08:31:15;102509.73;;;19.63;39.62
60817;BME280;51921;51.518;-3.188;2023-05-18T08:33:40;102509.87;;;19.92;38.48
60817;BME280;51921;51.518;-3.188;2023-05-18T08:36:07;102508.66;;;17.86;40.97
60817;BME280;51921;51.518;-3.188;2023-05-18T08:38:31;102507.03;;;19.72;39.34
60817;BME280;51921;51.518;-3.188;2023-05-18T08:41:02;102511.32;;;21.39;37.46
60817;BME280;51921;51.518;-3.188;2023-05-18T08:43:24;102508.42;;;21.68;35.45
60817;BME280;51921;51.518;-3.188;2023-05-18T08:45:49;102516.62;;;14.84;45.14
60817;BME280;51921;51.518;-3.188;2023-05-18T08:48:14;102512.68;;;17.15;43.71
60817;BME280;51921;51.518;-3.188;2023-05-18T08:50:40;102509.11;;;18.19;42.28
60817;BME280;51921;51.518;-3.188;2023-05-18T08:53:05;102504.67;;;19.33;39.52
60817;BME280;51921;51.518;-3.188;2023-05-18T08:55:29;102504.07;;;20.20;38.58
60817;BME280;51921;51.518;-3.188;2023-05-18T08:57:56;102507.44;;;15.64;44.25
60817;BME280;51921;51.518;-3.188;2023-05-18T09:00:20;102507.80;;;18.80;39.60
60817;BME280;51921;51.518;-3.188;2023-05-18T09:02:46;102503.46;;;20.93;36.01
60817;BME280;51921;51.518;-3.188;2023-05-18T09:05:10;102501.11;;;21.25;34.97
60817;BME280;51921;51.518;-3.188;2023-05-18T09:07:36;102500.76;;;22.73;34.72
60817;BME280;51921;51.518;-3.188;2023-05-18T09:10:02;102496.87;;;22.15;33.86
60817;BME280;51921;51.518;-3.188;2023-05-18T09:12:27;102495.86;;;19.09;37.09
60817;BME280;51921;51.518;-3.188;2023-05-18T09:14:52;102493.48;;;21.16;34.90
60817;BME280;51921;51.518;-3.188;2023-05-18T09:17:17;102489.90;;;22.59;33.56
60817;BME280;51921;51.518;-3.188;2023-05-18T09:19:42;102489.98;;;21.88;34.96
60817;BME280;51921;51.518;-3.188;2023-05-18T09:22:07;102491.39;;;20.42;34.99
60817;BME280;51921;51.518;-3.188;2023-05-18T09:24:33;102492.19;;;20.11;36.64
60817;BME280;51921;51.518;-3.188;2023-05-18T09:26:58;102491.30;;;20.46;35.84
60817;BME280;51921;51.518;-3.188;2023-05-18T09:29:23;102493.55;;;21.11;35.57
60817;BME280;51921;51.518;-3.188;2023-05-18T09:31:49;102487.21;;;18.28;36.11
60817;BME280;51921;51.518;-3.188;2023-05-18T09:34:15;102489.75;;;17.28;39.55
60817;BME280;51921;51.518;-3.188;2023-05-18T09:36:40;102484.06;;;18.72;38.94
60817;BME280;51921;51.518;-3.188;2023-05-18T09:39:07;102486.94;;;19.11;38.00
60817;BME280;51921;51.518;-3.188;2023-05-18T09:41:30;102487.70;;;19.65;36.68
60817;BME280;51921;51.518;-3.188;2023-05-18T09:43:55;102489.00;;;20.82;34.13
60817;BME280;51921;51.518;-3.188;2023-05-18T09:46:21;102489.65;;;20.95;35.96
60817;BME280;51921;51.518;-3.188;2023-05-18T09:48:48;102482.98;;;19.60;35.81
60817;BME280;51921;51.518;-3.188;2023-05-18T09:51:12;102483.83;;;20.83;32.87
60817;BME280;51921;51.518;-3.188;2023-05-18T09:53:37;102483.15;;;20.35;35.68
60817;BME280;51921;51.518;-3.188;2023-05-18T09:56:04;102478.76;;;18.96;34.72
60817;BME280;51921;51.518;-3.188;2023-05-18T09:58:30;102483.05;;;20.10;32.96
60817;BME280;51921;51.518;-3.188;2023-05-18T10:00:53;102479.64;;;20.32;32.42
60817;BME280;51921;51.518;-3.188;2023-05-18T10:03:20;102476.95;;;20.04;33.24
60817;BME280;51921;51.518;-3.188;2023-05-18T10:05:44;102472.56;;;19.92;31.01
60817;BME280;51921;51.518;-3.188;2023-05-18T10:08:11;102473.14;;;21.03;30.81
60817;BME280;51921;51.518;-3.188;2023-05-18T10:10:38;102478.46;;;15.22;38.88
60817;BME280;51921;51.518;-3.188;2023-05-18T10:13:00;102478.36;;;17.90;37.50
60817;BME280;51921;51.518;-3.188;2023-05-18T10:15:25;102478.30;;;15.36;40.00
60817;BME280;51921;51.518;-3.188;2023-05-18T10:17:55;102475.38;;;17.73;39.10
60817;BME280;51921;51.518;-3.188;2023-05-18T10:20:18;102474.06;;;19.34;36.02
60817;BME280;51921;51.518;-3.188;2023-05-18T10:22:41;102472.82;;;19.14;34.90
60817;BME280;51921;51.518;-3.188;2023-05-18T10:25:10;102472.91;;;20.11;34.55
60817;BME280;51921;51.518;-3.188;2023-05-18T10:27:34;102472.43;;;19.20;34.97
60817;BME280;51921;51.518;-3.188;2023-05-18T10:29:57;102469.85;;;19.57;33.55
60817;BME280;51921;51.518;-3.188;2023-05-18T10:32:24;102465.71;;;18.43;35.25
60817;BME280;51921;51.518;-3.188;2023-05-18T10:34:49;102469.18;;;19.42;33.71
60817;BME280;51921;51.518;-3.188;2023-05-18T10:37:13;102467.19;;;19.49;34.53
60817;BME280;51921;51.518;-3.188;2023-05-18T10:39:39;102467.28;;;19.74;33.68
60817;BME280;51921;51.518;-3.188;2023-05-18T10:42:06;102469.74;;;19.74;33.74
60817;BME280;51921;51.518;-3.188;2023-05-18T10:44:29;102470.37;;;17.61;36.27
60817;BME280;51921;51.518;-3.188;2023-05-18T10:46:54;102468.57;;;19.94;35.29
60817;BME280;51921;51.518;-3.188;2023-05-18T10:49:21;102466.28;;;21.31;34.55
60817;BME280;51921;51.518;-3.188;2023-05-18T10:51:47;102465.56;;;20.32;35.58
60817;BME280;51921;51.518;-3.188;2023-05-18T10:54:11;102473.08;;;19.74;35.43
60817;BME280;51921;51.518;-3.188;2023-05-18T10:56:36;102467.69;;;21.02;33.32
60817;BME280;51921;51.518;-3.188;2023-05-18T10:59:02;102462.30;;;19.96;34.26
60817;BME280;51921;51.518;-3.188;2023-05-18T11:01:26;102464.82;;;20.51;33.41
60817;BME280;51921;51.518;-3.188;2023-05-18T11:03:52;102463.23;;;19.41;35.02
60817;BME280;51921;51.518;-3.188;2023-05-18T11:06:22;102465.26;;;18.63;34.35
60817;BME280;51921;51.518;-3.188;2023-05-18T11:08:45;102468.05;;;19.51;33.89
60817;BME280;51921;51.518;-3.188;2023-05-18T11:11:07;102467.53;;;19.49;33.97
60817;BME280;51921;51.518;-3.188;2023-05-18T11:13:34;102468.41;;;20.03;35.71
60817;BME280;51921;51.518;-3.188;2023-05-18T11:16:03;102468.00;;;19.07;39.11
60817;BME280;51921;51.518;-3.188;2023-05-18T11:18:27;102472.33;;;19.77;39.29
60817;BME280;51921;51.518;-3.188;2023-05-18T11:20:48;102471.40;;;19.21;37.88
60817;BME280;51921;51.518;-3.188;2023-05-18T11:23:14;102468.19;;;18.55;41.32
60817;BME280;51921;51.518;-3.188;2023-05-18T11:25:41;102468.68;;;19.52;39.21
60817;BME280;51921;51.518;-3.188;2023-05-18T11:28:06;102470.81;;;18.34;39.26
60817;BME280;51921;51.518;-3.188;2023-05-18T11:30:45;102466.67;;;18.37;39.49
60817;BME280;51921;51.518;-3.188;2023-05-18T11:33:09;102466.87;;;18.54;39.51
60817;BME280;51921;51.518;-3.188;2023-05-18T11:35:22;102467.60;;;19.54;37.08
60817;BME280;51921;51.518;-3.188;2023-05-18T11:37:47;102462.55;;;19.24;37.57
60817;BME280;51921;51.518;-3.188;2023-05-18T11:42:38;102460.56;;;18.57;35.52
60817;BME280;51921;51.518;-3.188;2023-05-18T11:45:06;102454.61;;;18.35;37.24
60817;BME280;51921;51.518;-3.188;2023-05-18T11:47:29;102459.13;;;19.13;36.51
60817;BME280;51921;51.518;-3.188;2023-05-18T11:49:53;102459.25;;;19.03;35.55
60817;BME280;51921;51.518;-3.188;2023-05-18T11:52:20;102462.90;;;18.17;35.45
60817;BME280;51921;51.518;-3.188;2023-05-18T11:54:45;102459.12;;;18.69;35.66
60817;BME280;51921;51.518;-3.188;2023-05-18T11:57:10;102453.55;;;18.61;35.61
60817;BME280;51921;51.518;-3.188;2023-05-18T11:59:37;102461.04;;;18.13;35.37
60817;BME280;51921;51.518;-3.188;2023-05-18T12:02:01;102457.46;;;17.61;33.74
60817;BME280;51921;51.518;-3.188;2023-05-18T12:04:26;102455.72;;;18.50;35.51
60817;BME280;51921;51.518;-3.188;2023-05-18T12:06:51;102461.72;;;18.38;36.17
60817;BME280;51921;51.518;-3.188;2023-05-18T12:09:16;102458.96;;;18.91;35.43
60817;BME280;51921;51.518;-3.188;2023-05-18T12:11:41;102458.13;;;17.65;37.46
60817;BME280;51921;51.518;-3.188;2023-05-18T12:14:08;102455.23;;;17.69;36.27
60817;BME280;51921;51.518;-3.188;2023-05-18T12:16:32;102453.95;;;17.60;38.22
60817;BME280;51921;51.518;-3.188;2023-05-18T12:18:57;102451.58;;;18.15;35.46
60817;BME280;51921;51.518;-3.188;2023-05-18T12:21:22;102448.95;;;19.01;37.97
60817;BME280;51921;51.518;-3.188;2023-05-18T12:23:48;102446.02;;;19.44;37.33
60817;BME280;51921;51.518;-3.188;2023-05-18T12:26:13;102440.51;;;19.13;36.64
60817;BME280;51921;51.518;-3.188;2023-05-18T12:28:38;102445.70;;;19.03;36.18
60817;BME280;51921;51.518;-3.188;2023-05-18T12:31:05;102442.83;;;18.29;39.02
60817;BME280;51921;51.518;-3.188;2023-05-18T12:33:29;102448.19;;;17.92;40.40